sensor_id;sensor_type;location;lat;lon;timestamp;temperature;humidity
11965;DHT22;6042;41.326;19.826;2022-09-20T00:01:32;16.60;95.40
11965;DHT22;6042;41.326;19.826;2022-09-20T00:04:03;16.60;95.20
11965;DHT22;6042;41.326;19.826;2022-09-20T00:06:35;16.70;95.00
11965;DHT22;6042;41.326;19.826;2022-09-20T00:09:03;16.70;95.10
11965;DHT22;6042;41.326;19.826;2022-09-20T00:11:33;16.80;94.90
11965;DHT22;6042;41.326;19.826;2022-09-20T00:14:04;16.80;95.00
11965;DHT22;6042;41.326;19.826;2022-09-20T00:16:36;16.80;95.50
11965;DHT22;6042;41.326;19.826;2022-09-20T00:19:07;16.80;94.50
11965;DHT22;6042;41.326;19.826;2022-09-20T00:21:37;16.80;94.30
11965;DHT22;6042;41.326;19.826;2022-09-20T00:24:06;16.80;94.20
11965;DHT22;6042;41.326;19.826;2022-09-20T00:26:34;16.80;94.30
11965;DHT22;6042;41.326;19.826;2022-09-20T00:29:03;16.70;94.60
11965;DHT22;6042;41.326;19.826;2022-09-20T00:31:32;16.80;94.50
11965;DHT22;6042;41.326;19.826;2022-09-20T00:34:01;16.80;95.00
11965;DHT22;6042;41.326;19.826;2022-09-20T00:36:49;16.90;94.90
11965;DHT22;6042;41.326;19.826;2022-09-20T00:39:17;16.80;94.80
11965;DHT22;6042;41.326;19.826;2022-09-20T00:41:46;16.80;94.40
11965;DHT22;6042;41.326;19.826;2022-09-20T00:44:43;16.90;93.90
11965;DHT22;6042;41.326;19.826;2022-09-20T00:47:20;16.80;93.80
11965;DHT22;6042;41.326;19.826;2022-09-20T00:49:51;16.90;93.20
11965;DHT22;6042;41.326;19.826;2022-09-20T00:52:22;16.90;93.60
11965;DHT22;6042;41.326;19.826;2022-09-20T00:54:52;16.70;94.10
11965;DHT22;6042;41.326;19.826;2022-09-20T00:57:21;16.70;94.60
11965;DHT22;6042;41.326;19.826;2022-09-20T00:59:51;16.70;94.80
11965;DHT22;6042;41.326;19.826;2022-09-20T01:02:23;16.70;95.00
11965;DHT22;6042;41.326;19.826;2022-09-20T01:04:54;16.80;94.80
11965;DHT22;6042;41.326;19.826;2022-09-20T01:07:25;16.70;94.70
11965;DHT22;6042;41.326;19.826;2022-09-20T01:09:54;16.80;94.70
11965;DHT22;6042;41.326;19.826;2022-09-20T01:12:26;16.90;94.80
11965;DHT22;6042;41.326;19.826;2022-09-20T01:14:56;16.80;94.60
11965;DHT22;6042;41.326;19.826;2022-09-20T01:17:29;16.80;95.00
11965;DHT22;6042;41.326;19.826;2022-09-20T01:20:12;16.80;95.00
11965;DHT22;6042;41.326;19.826;2022-09-20T01:22:55;16.80;95.00
11965;DHT22;6042;41.326;19.826;2022-09-20T01:28:24;16.90;93.50
11965;DHT22;6042;41.326;19.826;2022-09-20T01:31:01;16.80;93.50
11965;DHT22;6042;41.326;19.826;2022-09-20T01:33:38;16.80;93.50
11965;DHT22;6042;41.326;19.826;2022-09-20T01:36:13;16.80;94.00
11965;DHT22;6042;41.326;19.826;2022-09-20T01:38:56;16.80;93.60
11965;DHT22;6042;41.326;19.826;2022-09-20T01:41:32;16.80;94.00
11965;DHT22;6042;41.326;19.826;2022-09-20T01:44:11;16.90;94.00
11965;DHT22;6042;41.326;19.826;2022-09-20T01:46:42;17.00;94.40
11965;DHT22;6042;41.326;19.826;2022-09-20T01:49:22;17.00;94.90
11965;DHT22;6042;41.326;19.826;2022-09-20T01:52:34;16.90;94.40
11965;DHT22;6042;41.326;19.826;2022-09-20T01:55:26;16.90;94.30
11965;DHT22;6042;41.326;19.826;2022-09-20T01:58:32;16.90;94.70
11965;DHT22;6042;41.326;19.826;2022-09-20T02:01:31;16.90;94.80
11965;DHT22;6042;41.326;19.826;2022-09-20T02:04:30;16.80;94.70
11965;DHT22;6042;41.326;19.826;2022-09-20T02:07:24;16.70;94.80
11965;DHT22;6042;41.326;19.826;2022-09-20T02:10:28;16.80;94.60
11965;DHT22;6042;41.326;19.826;2022-09-20T02:13:03;16.70;94.20
11965;DHT22;6042;41.326;19.826;2022-09-20T02:15:46;16.70;94.30
11965;DHT22;6042;41.326;19.826;2022-09-20T02:18:35;16.70;94.00
11965;DHT22;6042;41.326;19.826;2022-09-20T02:21:12;16.80;93.90
11965;DHT22;6042;41.326;19.826;2022-09-20T02:23:54;16.80;94.00
11965;DHT22;6042;41.326;19.826;2022-09-20T02:26:32;16.80;94.10
11965;DHT22;6042;41.326;19.826;2022-09-20T02:29:16;16.80;94.30
11965;DHT22;6042;41.326;19.826;2022-09-20T02:32:04;16.90;94.30
11965;DHT22;6042;41.326;19.826;2022-09-20T02:35:11;17.00;94.30
11965;DHT22;6042;41.326;19.826;2022-09-20T02:38:00;16.90;94.30
11965;DHT22;6042;41.326;19.826;2022-09-20T02:40:45;17.00;93.90
11965;DHT22;6042;41.326;19.826;2022-09-20T02:43:29;17.00;94.00
11965;DHT22;6042;41.326;19.826;2022-09-20T02:46:05;17.10;93.60
11965;DHT22;6042;41.326;19.826;2022-09-20T02:48:43;17.00;93.30
11965;DHT22;6042;41.326;19.826;2022-09-20T02:51:19;16.90;93.20
11965;DHT22;6042;41.326;19.826;2022-09-20T02:53:57;16.80;93.10
11965;DHT22;6042;41.326;19.826;2022-09-20T02:56:36;16.80;93.40
11965;DHT22;6042;41.326;19.826;2022-09-20T02:59:10;16.70;93.50
11965;DHT22;6042;41.326;19.826;2022-09-20T03:01:46;16.90;93.40
11965;DHT22;6042;41.326;19.826;2022-09-20T03:04:25;16.90;93.50
11965;DHT22;6042;41.326;19.826;2022-09-20T03:07:04;17.00;94.10
11965;DHT22;6042;41.326;19.826;2022-09-20T03:09:43;16.90;93.70
11965;DHT22;6042;41.326;19.826;2022-09-20T03:12:22;16.90;93.60
11965;DHT22;6042;41.326;19.826;2022-09-20T03:14:59;16.90;93.90
11965;DHT22;6042;41.326;19.826;2022-09-20T03:17:41;16.80;94.40
11965;DHT22;6042;41.326;19.826;2022-09-20T03:20:22;16.90;94.00
11965;DHT22;6042;41.326;19.826;2022-09-20T03:23:00;16.90;93.90
11965;DHT22;6042;41.326;19.826;2022-09-20T03:25:40;16.90;93.80
11965;DHT22;6042;41.326;19.826;2022-09-20T03:28:34;17.00;93.60
11965;DHT22;6042;41.326;19.826;2022-09-20T03:31:14;17.00;93.40
11965;DHT22;6042;41.326;19.826;2022-09-20T03:33:55;17.00;93.70
11965;DHT22;6042;41.326;19.826;2022-09-20T03:36:39;17.10;92.70
11965;DHT22;6042;41.326;19.826;2022-09-20T03:39:40;17.20;92.20
11965;DHT22;6042;41.326;19.826;2022-09-20T03:42:16;17.20;91.90
11965;DHT22;6042;41.326;19.826;2022-09-20T03:45:14;17.10;92.40
11965;DHT22;6042;41.326;19.826;2022-09-20T03:48:22;17.00;92.70
11965;DHT22;6042;41.326;19.826;2022-09-20T03:51:03;17.20;92.50
11965;DHT22;6042;41.326;19.826;2022-09-20T03:57:18;17.30;91.60
11965;DHT22;6042;41.326;19.826;2022-09-20T04:00:09;17.30;91.50
11965;DHT22;6042;41.326;19.826;2022-09-20T04:02:58;17.20;91.50
11965;DHT22;6042;41.326;19.826;2022-09-20T04:05:35;17.20;91.70
11965;DHT22;6042;41.326;19.826;2022-09-20T04:08:16;17.20;91.60
11965;DHT22;6042;41.326;19.826;2022-09-20T04:10:58;17.20;92.00
11965;DHT22;6042;41.326;19.826;2022-09-20T04:13:35;17.10;92.10
11965;DHT22;6042;41.326;19.826;2022-09-20T04:16:21;17.10;93.00
11965;DHT22;6042;41.326;19.826;2022-09-20T04:18:54;17.10;92.60
11965;DHT22;6042;41.326;19.826;2022-09-20T04:21:27;17.00;92.20
11965;DHT22;6042;41.326;19.826;2022-09-20T04:24:03;17.10;92.60
11965;DHT22;6042;41.326;19.826;2022-09-20T04:26:39;17.10;92.40
11965;DHT22;6042;41.326;19.826;2022-09-20T04:29:24;17.00;93.00
11965;DHT22;6042;41.326;19.826;2022-09-20T04:32:00;17.00;92.90
11965;DHT22;6042;41.326;19.826;2022-09-20T04:34:34;16.90;93.50
11965;DHT22;6042;41.326;19.826;2022-09-20T04:37:26;16.90;93.80
11965;DHT22;6042;41.326;19.826;2022-09-20T04:40:11;16.80;93.70
11965;DHT22;6042;41.326;19.826;2022-09-20T04:43:21;16.80;94.40
11965;DHT22;6042;41.326;19.826;2022-09-20T04:46:36;16.80;94.00
11965;DHT22;6042;41.326;19.826;2022-09-20T04:49:48;16.70;94.50
11965;DHT22;6042;41.326;19.826;2022-09-20T04:52:51;16.70;94.60
11965;DHT22;6042;41.326;19.826;2022-09-20T04:55:53;16.70;95.70
11965;DHT22;6042;41.326;19.826;2022-09-20T04:58:36;16.70;96.10
11965;DHT22;6042;41.326;19.826;2022-09-20T05:07:34;16.70;93.90
11965;DHT22;6042;41.326;19.826;2022-09-20T05:10:40;16.60;93.40
11965;DHT22;6042;41.326;19.826;2022-09-20T05:13:26;16.60;93.40
11965;DHT22;6042;41.326;19.826;2022-09-20T05:16:03;16.70;93.80
11965;DHT22;6042;41.326;19.826;2022-09-20T05:19:05;16.80;93.90
11965;DHT22;6042;41.326;19.826;2022-09-20T05:22:03;16.90;94.40
11965;DHT22;6042;41.326;19.826;2022-09-20T05:27:44;17.00;93.90
11965;DHT22;6042;41.326;19.826;2022-09-20T05:30:21;17.10;93.90
11965;DHT22;6042;41.326;19.826;2022-09-20T05:32:58;17.10;94.00
11965;DHT22;6042;41.326;19.826;2022-09-20T05:35:37;17.30;94.50
11965;DHT22;6042;41.326;19.826;2022-09-20T05:38:14;17.30;95.20
11965;DHT22;6042;41.326;19.826;2022-09-20T05:41:02;17.40;95.20
11965;DHT22;6042;41.326;19.826;2022-09-20T05:43:33;17.50;95.10
11965;DHT22;6042;41.326;19.826;2022-09-20T05:46:13;17.60;94.80
11965;DHT22;6042;41.326;19.826;2022-09-20T05:48:54;17.60;93.80
11965;DHT22;6042;41.326;19.826;2022-09-20T05:51:34;17.50;94.10
11965;DHT22;6042;41.326;19.826;2022-09-20T05:54:23;17.60;93.90
11965;DHT22;6042;41.326;19.826;2022-09-20T05:56:59;17.60;93.30
11965;DHT22;6042;41.326;19.826;2022-09-20T05:59:46;17.60;93.90
11965;DHT22;6042;41.326;19.826;2022-09-20T06:02:33;17.60;93.70
11965;DHT22;6042;41.326;19.826;2022-09-20T06:05:12;17.60;93.90
11965;DHT22;6042;41.326;19.826;2022-09-20T06:08:19;17.60;94.50
11965;DHT22;6042;41.326;19.826;2022-09-20T06:11:07;17.70;94.70
11965;DHT22;6042;41.326;19.826;2022-09-20T06:13:52;17.80;94.70
11965;DHT22;6042;41.326;19.826;2022-09-20T06:16:39;17.80;95.50
11965;DHT22;6042;41.326;19.826;2022-09-20T06:19:17;17.80;94.60
11965;DHT22;6042;41.326;19.826;2022-09-20T06:21:51;17.70;94.40
11965;DHT22;6042;41.326;19.826;2022-09-20T06:24:31;17.80;94.10
11965;DHT22;6042;41.326;19.826;2022-09-20T06:27:09;17.80;94.30
11965;DHT22;6042;41.326;19.826;2022-09-20T06:29:42;17.80;94.50
11965;DHT22;6042;41.326;19.826;2022-09-20T06:32:15;18.00;94.80
11965;DHT22;6042;41.326;19.826;2022-09-20T06:34:46;18.20;94.20
11965;DHT22;6042;41.326;19.826;2022-09-20T06:37:32;18.30;94.10
11965;DHT22;6042;41.326;19.826;2022-09-20T06:40:32;18.40;94.20
11965;DHT22;6042;41.326;19.826;2022-09-20T06:43:23;18.60;94.90
11965;DHT22;6042;41.326;19.826;2022-09-20T06:45:51;18.70;95.70
11965;DHT22;6042;41.326;19.826;2022-09-20T06:48:20;18.80;93.80
11965;DHT22;6042;41.326;19.826;2022-09-20T06:50:48;18.90;94.30
11965;DHT22;6042;41.326;19.826;2022-09-20T06:53:26;19.10;92.80
11965;DHT22;6042;41.326;19.826;2022-09-20T06:55:56;19.20;92.00
11965;DHT22;6042;41.326;19.826;2022-09-20T06:58:26;19.20;93.10
11965;DHT22;6042;41.326;19.826;2022-09-20T07:00:54;19.40;93.80
11965;DHT22;6042;41.326;19.826;2022-09-20T07:03:23;19.50;92.10
11965;DHT22;6042;41.326;19.826;2022-09-20T07:05:52;19.60;93.10
11965;DHT22;6042;41.326;19.826;2022-09-20T07:08:21;19.70;93.20
11965;DHT22;6042;41.326;19.826;2022-09-20T07:10:49;19.70;92.40
11965;DHT22;6042;41.326;19.826;2022-09-20T07:13:18;19.70;92.80
11965;DHT22;6042;41.326;19.826;2022-09-20T07:15:48;19.70;93.50
11965;DHT22;6042;41.326;19.826;2022-09-20T07:18:17;19.70;92.80
11965;DHT22;6042;41.326;19.826;2022-09-20T07:20:46;19.80;92.20
11965;DHT22;6042;41.326;19.826;2022-09-20T07:23:14;19.80;92.70
11965;DHT22;6042;41.326;19.826;2022-09-20T07:25:43;20.00;92.90
11965;DHT22;6042;41.326;19.826;2022-09-20T07:28:11;20.10;91.50
11965;DHT22;6042;41.326;19.826;2022-09-20T07:30:40;20.20;90.40
11965;DHT22;6042;41.326;19.826;2022-09-20T07:33:10;20.30;88.20
11965;DHT22;6042;41.326;19.826;2022-09-20T07:35:43;20.30;89.00
11965;DHT22;6042;41.326;19.826;2022-09-20T07:38:11;20.30;91.10
11965;DHT22;6042;41.326;19.826;2022-09-20T07:40:40;20.40;90.30
11965;DHT22;6042;41.326;19.826;2022-09-20T07:43:09;20.50;90.30
11965;DHT22;6042;41.326;19.826;2022-09-20T07:45:37;20.60;91.40
11965;DHT22;6042;41.326;19.826;2022-09-20T07:48:06;20.70;90.80
11965;DHT22;6042;41.326;19.826;2022-09-20T07:50:37;20.80;91.50
11965;DHT22;6042;41.326;19.826;2022-09-20T07:53:05;20.80;90.90
11965;DHT22;6042;41.326;19.826;2022-09-20T07:55:34;20.90;89.10
11965;DHT22;6042;41.326;19.826;2022-09-20T07:58:03;20.80;89.00
11965;DHT22;6042;41.326;19.826;2022-09-20T08:00:31;21.00;87.00
11965;DHT22;6042;41.326;19.826;2022-09-20T08:03:00;21.20;85.70
11965;DHT22;6042;41.326;19.826;2022-09-20T08:05:29;21.30;85.10
11965;DHT22;6042;41.326;19.826;2022-09-20T08:07:59;21.30;84.80
11965;DHT22;6042;41.326;19.826;2022-09-20T08:10:29;21.30;83.40
11965;DHT22;6042;41.326;19.826;2022-09-20T08:12:58;21.40;83.60
11965;DHT22;6042;41.326;19.826;2022-09-20T08:15:47;21.70;82.00
11965;DHT22;6042;41.326;19.826;2022-09-20T08:18:15;21.80;79.40
11965;DHT22;6042;41.326;19.826;2022-09-20T08:20:44;21.80;80.00
11965;DHT22;6042;41.326;19.826;2022-09-20T08:23:14;22.00;76.30
11965;DHT22;6042;41.326;19.826;2022-09-20T08:25:50;22.10;76.60
11965;DHT22;6042;41.326;19.826;2022-09-20T08:28:18;22.20;78.40
11965;DHT22;6042;41.326;19.826;2022-09-20T08:30:47;22.20;78.50
11965;DHT22;6042;41.326;19.826;2022-09-20T08:33:15;22.30;77.40
11965;DHT22;6042;41.326;19.826;2022-09-20T08:35:47;22.50;76.20
11965;DHT22;6042;41.326;19.826;2022-09-20T08:38:17;22.60;75.90
11965;DHT22;6042;41.326;19.826;2022-09-20T08:41:10;22.60;76.40
11965;DHT22;6042;41.326;19.826;2022-09-20T08:43:44;22.70;77.10
11965;DHT22;6042;41.326;19.826;2022-09-20T08:46:15;22.70;77.30
11965;DHT22;6042;41.326;19.826;2022-09-20T08:48:49;22.70;78.20
11965;DHT22;6042;41.326;19.826;2022-09-20T08:51:20;22.80;77.70
11965;DHT22;6042;41.326;19.826;2022-09-20T08:53:52;23.00;78.40
11965;DHT22;6042;41.326;19.826;2022-09-20T08:56:22;23.00;77.60
11965;DHT22;6042;41.326;19.826;2022-09-20T08:58:54;22.80;78.30
11965;DHT22;6042;41.326;19.826;2022-09-20T09:01:24;22.70;77.90
11965;DHT22;6042;41.326;19.826;2022-09-20T09:04:01;22.60;77.50
11965;DHT22;6042;41.326;19.826;2022-09-20T09:06:30;22.60;78.00
11965;DHT22;6042;41.326;19.826;2022-09-20T09:09:00;22.60;78.60
11965;DHT22;6042;41.326;19.826;2022-09-20T09:11:29;22.70;78.50
11965;DHT22;6042;41.326;19.826;2022-09-20T09:14:01;22.80;78.70
11965;DHT22;6042;41.326;19.826;2022-09-20T09:16:33;22.90;78.90
11965;DHT22;6042;41.326;19.826;2022-09-20T09:19:26;23.00;77.90
11965;DHT22;6042;41.326;19.826;2022-09-20T09:22:04;23.00;78.40
11965;DHT22;6042;41.326;19.826;2022-09-20T09:24:34;22.80;79.10
11965;DHT22;6042;41.326;19.826;2022-09-20T09:27:12;22.70;78.90
11965;DHT22;6042;41.326;19.826;2022-09-20T09:29:48;22.70;78.70
11965;DHT22;6042;41.326;19.826;2022-09-20T09:32:21;22.70;79.10
11965;DHT22;6042;41.326;19.826;2022-09-20T09:34:50;22.50;78.70
11965;DHT22;6042;41.326;19.826;2022-09-20T09:37:24;22.40;78.90
11965;DHT22;6042;41.326;19.826;2022-09-20T09:40:13;22.50;79.40
11965;DHT22;6042;41.326;19.826;2022-09-20T09:42:51;22.50;79.70
11965;DHT22;6042;41.326;19.826;2022-09-20T09:45:26;22.70;81.80
11965;DHT22;6042;41.326;19.826;2022-09-20T09:47:56;22.80;82.10
11965;DHT22;6042;41.326;19.826;2022-09-20T09:50:27;23.00;82.20
11965;DHT22;6042;41.326;19.826;2022-09-20T09:52:58;23.10;80.50
11965;DHT22;6042;41.326;19.826;2022-09-20T09:55:47;23.00;77.80
11965;DHT22;6042;41.326;19.826;2022-09-20T09:58:28;23.10;76.90
11965;DHT22;6042;41.326;19.826;2022-09-20T10:01:02;23.30;77.50
11965;DHT22;6042;41.326;19.826;2022-09-20T10:03:46;23.30;77.20
11965;DHT22;6042;41.326;19.826;2022-09-20T10:06:20;23.10;77.10
11965;DHT22;6042;41.326;19.826;2022-09-20T10:09:04;23.00;77.40
11965;DHT22;6042;41.326;19.826;2022-09-20T10:11:48;23.00;77.20
11965;DHT22;6042;41.326;19.826;2022-09-20T10:14:31;23.10;77.30
11965;DHT22;6042;41.326;19.826;2022-09-20T10:17:18;23.20;76.10
11965;DHT22;6042;41.326;19.826;2022-09-20T10:20:07;23.20;74.80
11965;DHT22;6042;41.326;19.826;2022-09-20T10:22:44;23.20;75.10
11965;DHT22;6042;41.326;19.826;2022-09-20T10:25:39;23.30;75.30
11965;DHT22;6042;41.326;19.826;2022-09-20T10:28:32;23.50;73.60
11965;DHT22;6042;41.326;19.826;2022-09-20T10:31:07;23.50;73.50
11965;DHT22;6042;41.326;19.826;2022-09-20T10:33:44;23.50;74.20
11965;DHT22;6042;41.326;19.826;2022-09-20T10:36:22;23.60;74.30
11965;DHT22;6042;41.326;19.826;2022-09-20T10:38:57;23.90;73.70
11965;DHT22;6042;41.326;19.826;2022-09-20T10:41:41;24.10;72.50
11965;DHT22;6042;41.326;19.826;2022-09-20T10:44:42;24.30;72.30
11965;DHT22;6042;41.326;19.826;2022-09-20T10:47:15;24.40;72.30
11965;DHT22;6042;41.326;19.826;2022-09-20T10:49:54;24.40;72.50
11965;DHT22;6042;41.326;19.826;2022-09-20T10:52:41;24.30;71.40
11965;DHT22;6042;41.326;19.826;2022-09-20T10:55:34;24.10;72.00
11965;DHT22;6042;41.326;19.826;2022-09-20T10:58:44;24.10;72.50
11965;DHT22;6042;41.326;19.826;2022-09-20T11:01:22;24.20;72.00
11965;DHT22;6042;41.326;19.826;2022-09-20T11:04:20;24.10;71.70
11965;DHT22;6042;41.326;19.826;2022-09-20T11:07:03;24.30;71.10
11965;DHT22;6042;41.326;19.826;2022-09-20T11:09:39;24.60;70.50
11965;DHT22;6042;41.326;19.826;2022-09-20T11:12:13;25.00;71.20
11965;DHT22;6042;41.326;19.826;2022-09-20T11:14:47;25.00;68.30
11965;DHT22;6042;41.326;19.826;2022-09-20T11:17:24;25.00;67.10
11965;DHT22;6042;41.326;19.826;2022-09-20T11:19:58;24.80;68.50
11965;DHT22;6042;41.326;19.826;2022-09-20T11:22:36;24.90;68.90
11965;DHT22;6042;41.326;19.826;2022-09-20T11:25:14;25.00;67.50
11965;DHT22;6042;41.326;19.826;2022-09-20T11:27:52;25.40;67.20
11965;DHT22;6042;41.326;19.826;2022-09-20T11:30:23;25.50;65.30
11965;DHT22;6042;41.326;19.826;2022-09-20T11:32:55;25.50;65.90
11965;DHT22;6042;41.326;19.826;2022-09-20T11:35:31;25.50;66.40
11965;DHT22;6042;41.326;19.826;2022-09-20T11:38:07;25.80;66.90
11965;DHT22;6042;41.326;19.826;2022-09-20T11:40:40;26.00;67.50
11965;DHT22;6042;41.326;19.826;2022-09-20T11:43:12;26.20;65.10
11965;DHT22;6042;41.326;19.826;2022-09-20T11:45:42;26.20;64.50
11965;DHT22;6042;41.326;19.826;2022-09-20T11:48:17;26.40;62.80
11965;DHT22;6042;41.326;19.826;2022-09-20T11:51:08;26.10;63.20
11965;DHT22;6042;41.326;19.826;2022-09-20T11:53:58;25.40;64.50
11965;DHT22;6042;41.326;19.826;2022-09-20T11:56:32;25.20;64.30
11965;DHT22;6042;41.326;19.826;2022-09-20T11:59:03;25.20;64.70
11965;DHT22;6042;41.326;19.826;2022-09-20T12:01:34;25.40;64.60
11965;DHT22;6042;41.326;19.826;2022-09-20T12:04:09;25.50;64.90
11965;DHT22;6042;41.326;19.826;2022-09-20T12:07:02;25.70;64.40
11965;DHT22;6042;41.326;19.826;2022-09-20T12:09:39;25.90;62.90
11965;DHT22;6042;41.326;19.826;2022-09-20T12:12:27;26.10;61.70
11965;DHT22;6042;41.326;19.826;2022-09-20T12:14:59;26.40;62.80
11965;DHT22;6042;41.326;19.826;2022-09-20T12:18:04;26.30;60.40
11965;DHT22;6042;41.326;19.826;2022-09-20T12:26:41;26.10;63.10
11965;DHT22;6042;41.326;19.826;2022-09-20T12:32:51;26.30;62.70
11965;DHT22;6042;41.326;19.826;2022-09-20T12:36:15;26.30;62.20
11965;DHT22;6042;41.326;19.826;2022-09-20T12:38:58;26.30;62.70
11965;DHT22;6042;41.326;19.826;2022-09-20T12:41:44;26.40;63.70
11965;DHT22;6042;41.326;19.826;2022-09-20T12:44:34;26.50;63.40
11965;DHT22;6042;41.326;19.826;2022-09-20T12:47:05;26.50;63.20
11965;DHT22;6042;41.326;19.826;2022-09-20T12:49:40;26.50;63.40
11965;DHT22;6042;41.326;19.826;2022-09-20T12:52:31;26.60;63.70
11965;DHT22;6042;41.326;19.826;2022-09-20T12:55:30;26.90;64.20
11965;DHT22;6042;41.326;19.826;2022-09-20T12:58:03;27.10;63.90
11965;DHT22;6042;41.326;19.826;2022-09-20T13:00:35;27.00;63.00
11965;DHT22;6042;41.326;19.826;2022-09-20T13:03:22;27.00;64.60
11965;DHT22;6042;41.326;19.826;2022-09-20T13:06:21;26.90;63.70
11965;DHT22;6042;41.326;19.826;2022-09-20T13:09:04;26.30;64.60
11965;DHT22;6042;41.326;19.826;2022-09-20T13:11:40;26.10;65.10
11965;DHT22;6042;41.326;19.826;2022-09-20T13:14:13;26.10;63.10
11965;DHT22;6042;41.326;19.826;2022-09-20T13:16:51;25.70;65.10
11965;DHT22;6042;41.326;19.826;2022-09-20T13:19:23;25.80;64.90
11965;DHT22;6042;41.326;19.826;2022-09-20T13:22:00;26.20;63.70
11965;DHT22;6042;41.326;19.826;2022-09-20T13:24:31;26.60;63.80
11965;DHT22;6042;41.326;19.826;2022-09-20T13:27:06;26.80;62.00
11965;DHT22;6042;41.326;19.826;2022-09-20T13:29:38;26.80;62.90
11965;DHT22;6042;41.326;19.826;2022-09-20T13:32:16;26.70;62.90
11965;DHT22;6042;41.326;19.826;2022-09-20T13:34:46;26.80;62.40
11965;DHT22;6042;41.326;19.826;2022-09-20T13:37:35;26.70;62.30
11965;DHT22;6042;41.326;19.826;2022-09-20T13:40:04;26.50;63.10
11965;DHT22;6042;41.326;19.826;2022-09-20T13:42:35;26.60;63.00
11965;DHT22;6042;41.326;19.826;2022-09-20T13:45:04;26.90;61.80
11965;DHT22;6042;41.326;19.826;2022-09-20T13:47:33;27.00;62.40
11965;DHT22;6042;41.326;19.826;2022-09-20T13:50:08;26.80;61.40
11965;DHT22;6042;41.326;19.826;2022-09-20T13:52:44;26.70;62.10
11965;DHT22;6042;41.326;19.826;2022-09-20T13:55:27;26.30;62.70
11965;DHT22;6042;41.326;19.826;2022-09-20T13:58:00;26.80;62.40
11965;DHT22;6042;41.326;19.826;2022-09-20T14:00:30;27.60;61.10
11965;DHT22;6042;41.326;19.826;2022-09-20T14:03:00;28.90;60.00
11965;DHT22;6042;41.326;19.826;2022-09-20T14:05:29;30.30;57.50
11965;DHT22;6042;41.326;19.826;2022-09-20T14:08:00;30.10;56.70
11965;DHT22;6042;41.326;19.826;2022-09-20T14:10:32;29.90;56.50
11965;DHT22;6042;41.326;19.826;2022-09-20T14:13:03;29.80;57.00
11965;DHT22;6042;41.326;19.826;2022-09-20T14:15:35;29.80;56.80
11965;DHT22;6042;41.326;19.826;2022-09-20T14:18:07;29.70;57.00
11965;DHT22;6042;41.326;19.826;2022-09-20T14:20:40;28.50;58.40
11965;DHT22;6042;41.326;19.826;2022-09-20T14:23:19;27.60;60.20
11965;DHT22;6042;41.326;19.826;2022-09-20T14:26:07;26.70;61.40
11965;DHT22;6042;41.326;19.826;2022-09-20T14:28:49;26.10;63.00
11965;DHT22;6042;41.326;19.826;2022-09-20T14:31:20;25.70;63.90
11965;DHT22;6042;41.326;19.826;2022-09-20T14:33:51;25.30;63.30
11965;DHT22;6042;41.326;19.826;2022-09-20T14:36:24;24.90;64.80
11965;DHT22;6042;41.326;19.826;2022-09-20T14:38:57;24.70;65.40
11965;DHT22;6042;41.326;19.826;2022-09-20T14:41:30;24.60;66.00
11965;DHT22;6042;41.326;19.826;2022-09-20T14:44:02;24.60;66.20
11965;DHT22;6042;41.326;19.826;2022-09-20T14:46:33;24.60;66.20
11965;DHT22;6042;41.326;19.826;2022-09-20T14:49:29;24.40;65.50
11965;DHT22;6042;41.326;19.826;2022-09-20T14:52:22;24.20;65.70
11965;DHT22;6042;41.326;19.826;2022-09-20T14:54:59;24.10;65.70
11965;DHT22;6042;41.326;19.826;2022-09-20T14:57:29;24.00;65.70
11965;DHT22;6042;41.326;19.826;2022-09-20T15:00:06;23.90;66.50
11965;DHT22;6042;41.326;19.826;2022-09-20T15:02:35;23.70;67.70
11965;DHT22;6042;41.326;19.826;2022-09-20T15:05:04;23.60;67.50
11965;DHT22;6042;41.326;19.826;2022-09-20T15:07:35;23.50;67.60
11965;DHT22;6042;41.326;19.826;2022-09-20T15:10:10;23.50;72.20
11965;DHT22;6042;41.326;19.826;2022-09-20T15:12:39;23.40;71.20
11965;DHT22;6042;41.326;19.826;2022-09-20T15:15:13;23.50;67.70
11965;DHT22;6042;41.326;19.826;2022-09-20T15:17:44;23.50;68.10
11965;DHT22;6042;41.326;19.826;2022-09-20T15:20:15;23.60;69.00
11965;DHT22;6042;41.326;19.826;2022-09-20T15:22:51;23.40;68.20
11965;DHT22;6042;41.326;19.826;2022-09-20T15:25:20;23.40;67.40
11965;DHT22;6042;41.326;19.826;2022-09-20T15:27:48;23.20;67.30
11965;DHT22;6042;41.326;19.826;2022-09-20T15:30:19;23.20;67.10
11965;DHT22;6042;41.326;19.826;2022-09-20T15:32:48;23.30;66.40
11965;DHT22;6042;41.326;19.826;2022-09-20T15:35:17;23.20;66.70
11965;DHT22;6042;41.326;19.826;2022-09-20T15:37:45;23.20;67.10
11965;DHT22;6042;41.326;19.826;2022-09-20T15:40:13;23.20;67.30
11965;DHT22;6042;41.326;19.826;2022-09-20T15:42:42;23.20;67.80
11965;DHT22;6042;41.326;19.826;2022-09-20T15:45:12;23.20;68.70
11965;DHT22;6042;41.326;19.826;2022-09-20T15:47:42;23.20;68.10
11965;DHT22;6042;41.326;19.826;2022-09-20T15:50:10;23.20;67.40
11965;DHT22;6042;41.326;19.826;2022-09-20T15:52:39;23.10;67.60
11965;DHT22;6042;41.326;19.826;2022-09-20T15:55:08;23.10;68.10
11965;DHT22;6042;41.326;19.826;2022-09-20T15:57:38;23.00;69.40
11965;DHT22;6042;41.326;19.826;2022-09-20T16:00:08;22.90;69.70
11965;DHT22;6042;41.326;19.826;2022-09-20T16:02:37;22.90;70.50
11965;DHT22;6042;41.326;19.826;2022-09-20T16:05:07;23.00;69.70
11965;DHT22;6042;41.326;19.826;2022-09-20T16:07:36;23.00;70.50
11965;DHT22;6042;41.326;19.826;2022-09-20T16:10:06;22.90;69.70
11965;DHT22;6042;41.326;19.826;2022-09-20T16:12:35;22.90;70.30
11965;DHT22;6042;41.326;19.826;2022-09-20T16:15:04;22.80;69.80
11965;DHT22;6042;41.326;19.826;2022-09-20T16:17:32;22.80;70.40
11965;DHT22;6042;41.326;19.826;2022-09-20T16:20:31;22.70;70.40
11965;DHT22;6042;41.326;19.826;2022-09-20T16:23:00;22.60;72.90
11965;DHT22;6042;41.326;19.826;2022-09-20T16:25:28;22.50;75.10
11965;DHT22;6042;41.326;19.826;2022-09-20T16:27:57;22.30;76.80
11965;DHT22;6042;41.326;19.826;2022-09-20T16:30:25;22.20;78.60
11965;DHT22;6042;41.326;19.826;2022-09-20T16:32:54;22.10;79.20
11965;DHT22;6042;41.326;19.826;2022-09-20T16:35:23;22.00;79.40
11965;DHT22;6042;41.326;19.826;2022-09-20T16:37:53;21.90;80.20
11965;DHT22;6042;41.326;19.826;2022-09-20T16:40:22;21.80;81.10
11965;DHT22;6042;41.326;19.826;2022-09-20T16:42:53;21.60;81.80
11965;DHT22;6042;41.326;19.826;2022-09-20T16:45:22;21.50;82.30
11965;DHT22;6042;41.326;19.826;2022-09-20T16:47:53;21.50;82.70
11965;DHT22;6042;41.326;19.826;2022-09-20T16:50:23;21.50;83.10
11965;DHT22;6042;41.326;19.826;2022-09-20T16:52:53;21.50;83.20
11965;DHT22;6042;41.326;19.826;2022-09-20T16:55:21;21.50;83.40
11965;DHT22;6042;41.326;19.826;2022-09-20T16:57:50;21.50;83.50
11965;DHT22;6042;41.326;19.826;2022-09-20T17:00:19;21.60;83.30